Observations for BOSCOMBE DOWN, United Kingdom (EGDM)

EGDM 231050Z 22009KT 9999 BKN006 OVC012 15/14 Q1016 YLO1 BECMG BKN012 GRN   
EGDM 230950Z 22009KT 9999 BKN004 OVC010 14/14 Q1016 YLO2 TEMPO BKN005 YLO1  
EGDM 230928Z 21009KT 9999 BKN004 OVC010 14/13 Q1016 YLO2 TEMPO BKN005 YLO1  
EGDM 230928Z 21009KT 9999 BKN004 OVC010 14/13 Q1016 YLO2 TEMPO BKN005 YLO1
EGDM 230850Z 20008KT 6000 -RADZ FEW002 BKN003 OVC010 13/13 Q1017 YLO2 TEMPO 4000 YLO2   
EGDM 230806Z 20009KT 3000 -RADZ SCT002 BKN003 OVC005 12/12 Q1017 AMB TEMPO 2000 AMB 
EGDM 230806Z 20009KT 3000 -RADZ SCT002 BKN003 OVC005 12/12 Q1017 AMB TEMPO 2000AMB
EGDM 230750Z 20009KT 2200 -RADZ BKN002 OVC005 12/12 Q1017 AMB TEMPO 1200 BKN001 RED 
EGDM 230650Z 19006KT 2200 -RADZ FEW001 BKN002 OVC009 11/11 Q1017 AMB TEMPO 1200 BKN001 RED  
EGDM 230536Z 18007KT 9999 -RA SCT003 BKN012 BKN045 11/10 Q1018 YLO2 
EGDM 230536Z 18007KT 9999 -RA SCT003 BKN012 BKN045 11/10 Q1018 YLO2
EGDM 230450Z AUTO 21007KT 9999 FEW028/// SCT035/// BKN041/// 11/10 Q1018
EGDM 230350Z AUTO 21008KT 9999 BKN047/// 11/10 Q1018
EGDM 230250Z AUTO 24010KT 9999 FEW024/// BKN042/// 11/09 Q1018  
EGDM 230150Z AUTO 23009KT 9999 BKN035/// BKN150/// 10/09 Q1018  
EGDM 230050Z AUTO 24009KT 9999 FEW042/// BKN150/// BKN190/// 10/09 Q1018
EGDM 222350Z AUTO 24008KT 9999 SCT150/// BKN210/// 09/08 Q1019  
EGDM 222250Z AUTO 25007KT 9999 FEW015/// BKN023/// 10/09 Q1019 RERA 
EGDM 222150Z AUTO 25013KT 9999 FEW039/// BKN049/// BKN220/// 10/08 Q1019
EGDM 222050Z AUTO 25010KT 9999 BKN050/// 10/08 Q1019
EGDM 221950Z AUTO 25006KT 9999 FEW023/// BKN047/// 11/08 Q1019  
EGDM 221850Z AUTO 28009KT 9999 OVC047/// 11/08 Q1018
EGDM 221750Z AUTO 29012KT 9999 FEW028/// BKN044/// 11/09 Q1018 RERA 
EGDM 221650Z AUTO 28011KT 9999 FEW029/// SCT040/// BKN050/// 10/09 Q1017 RERA   
EGDM 221550Z AUTO 28014KT 9000 HZ FEW024/// SCT034/// BKN044/// 12/08 Q1016 RERA
EGDM 221450Z 29020KT 9999 FEW025 SCT060 12/07 Q1016 RESHRA BLU  
EGDM 221350Z 28019KT 9999 FEW029 13/07 Q1015 BLU
EGDM 221250Z 29019KT 9999 FEW030 BKN050 12/06 Q1015 BLU 
EGDM 221150Z 29018KT 9999 FEW032 SCT055 12/05 Q1015 BLU 
EGDM 221050Z 29022KT 9999 FEW032 12/04 Q1015 BLU